Time;durP1;ratioP1;P1;durP2;ratioP2;P2;SDS_P1;SDS_P2;PMS_P1;PMS_P2;Temp;Humidity;BMP_temperature;BMP_pressure;BME280_temperature;BME280_humidity;BME280_pressure;Samples;Min_cycle;Max_cycle;Signal;HPM_P1;HPM_P2
2020/12/15 00:01:06;;;;;;;3.43;2.77;;;8.70;99.90;;;;;;482086;245;28147;-76
2020/12/15 00:03:07;;;;;;;3.47;3.17;;;8.70;99.90;;;;;;482170;245;27971;-75
2020/12/15 00:05:08;;;;;;;4.10;2.70;;;8.70;99.90;;;;;;481650;245;27990;-75
2020/12/15 00:07:09;;;;;;;3.70;2.50;;;8.80;99.90;;;;;;481839;245;28020;-77
2020/12/15 00:09:11;;;;;;;3.60;2.63;;;8.80;99.90;;;;;;481931;245;27855;-76
2020/12/15 00:11:12;;;;;;;2.60;2.40;;;8.80;99.90;;;;;;481935;245;28204;-76
2020/12/15 00:13:13;;;;;;;3.03;2.70;;;8.80;99.90;;;;;;482012;245;27891;-76
2020/12/15 00:15:14;;;;;;;3.80;2.83;;;8.80;99.90;;;;;;482056;245;27720;-76
2020/12/15 00:17:16;;;;;;;3.53;2.90;;;8.80;99.90;;;;;;482076;245;27884;-76
2020/12/15 00:19:17;;;;;;;3.43;2.63;;;8.80;99.90;;;;;;482064;245;27941;-76
2020/12/15 00:21:18;;;;;;;4.50;2.90;;;8.80;99.90;;;;;;481946;245;27970;-76
2020/12/15 00:23:19;;;;;;;3.37;3.07;;;8.80;99.90;;;;;;481954;245;27966;-77
2020/12/15 00:25:21;;;;;;;3.10;2.83;;;8.80;99.90;;;;;;482012;245;28553;-75
2020/12/15 00:27:22;;;;;;;3.30;3.00;;;8.70;99.90;;;;;;482016;245;28456;-76
2020/12/15 00:29:23;;;;;;;3.77;2.90;;;8.70;99.90;;;;;;482026;245;28612;-76
2020/12/15 00:31:24;;;;;;;4.77;3.13;;;8.70;99.90;;;;;;481861;245;29610;-76
2020/12/15 00:33:26;;;;;;;3.33;3.00;;;8.60;99.90;;;;;;481922;245;28043;-77
2020/12/15 00:35:27;;;;;;;6.50;3.93;;;8.50;99.90;;;;;;481915;246;27881;-76
2020/12/15 00:37:28;;;;;;;4.40;3.70;;;8.50;99.90;;;;;;481840;245;28044;-76
2020/12/15 00:39:29;;;;;;;5.13;4.33;;;8.50;99.90;;;;;;481861;245;28016;-75
2020/12/15 00:41:31;;;;;;;5.70;3.97;;;8.40;99.90;;;;;;481895;245;27615;-76
2020/12/15 00:43:32;;;;;;;7.73;3.53;;;8.40;99.90;;;;;;481913;245;28025;-76
2020/12/15 00:45:33;;;;;;;5.60;4.13;;;8.30;99.90;;;;;;481902;245;28163;-77
2020/12/15 00:47:34;;;;;;;7.10;4.63;;;8.30;99.90;;;;;;481928;245;28237;-76
2020/12/15 00:49:36;;;;;;;5.03;3.80;;;8.30;99.90;;;;;;481922;245;28259;-76
2020/12/15 00:51:37;;;;;;;4.53;4.00;;;8.30;99.90;;;;;;481913;246;28090;-76
2020/12/15 00:53:38;;;;;;;4.77;4.30;;;8.20;99.90;;;;;;482078;245;28021;-75
2020/12/15 00:55:39;;;;;;;8.83;4.20;;;8.20;99.90;;;;;;482078;245;27999;-76
2020/12/15 00:57:41;;;;;;;4.80;4.30;;;8.10;99.90;;;;;;482077;245;27513;-76
2020/12/15 00:59:42;;;;;;;6.77;4.67;;;8.10;99.90;;;;;;482026;245;27995;-76
2020/12/15 01:01:43;;;;;;;6.90;5.10;;;8.00;99.90;;;;;;481897;245;27893;-76
2020/12/15 01:03:44;;;;;;;6.50;4.93;;;8.00;99.90;;;;;;481937;241;27979;-76
2020/12/15 01:05:46;;;;;;;11.63;4.97;;;8.00;99.90;;;;;;481913;245;29274;-76
2020/12/15 01:07:47;;;;;;;6.13;4.53;;;7.90;99.90;;;;;;481941;245;28558;-76
2020/12/15 01:09:48;;;;;;;5.40;4.80;;;7.90;99.90;;;;;;481991;245;28487;-76
2020/12/15 01:11:49;;;;;;;6.30;5.20;;;7.90;99.90;;;;;;481928;245;27847;-76
2020/12/15 01:13:51;;;;;;;6.00;4.20;;;7.90;99.90;;;;;;481984;245;28070;-76
2020/12/15 01:15:52;;;;;;;7.20;4.80;;;7.90;99.90;;;;;;482017;245;27984;-76
2020/12/15 01:17:53;;;;;;;5.70;4.70;;;7.80;99.90;;;;;;482015;245;27877;-76
2020/12/15 01:19:54;;;;;;;9.97;5.20;;;7.90;99.90;;;;;;482045;245;27994;-76
2020/12/15 01:21:56;;;;;;;6.67;4.73;;;7.80;99.90;;;;;;481960;245;27937;-76
2020/12/15 01:23:57;;;;;;;8.97;4.93;;;7.80;99.90;;;;;;481971;245;28024;-75
2020/12/15 01:25:58;;;;;;;5.20;4.70;;;7.80;99.90;;;;;;481960;245;28359;-76
2020/12/15 01:27:59;;;;;;;5.73;5.10;;;7.70;99.90;;;;;;481853;246;28004;-75
2020/12/15 01:30:01;;;;;;;6.57;4.67;;;7.70;99.90;;;;;;481876;245;28372;-76
2020/12/15 01:32:02;;;;;;;7.40;5.90;;;7.60;99.90;;;;;;481856;241;28099;-76
2020/12/15 01:34:03;;;;;;;7.83;5.10;;;7.60;99.90;;;;;;481871;245;28198;-76
2020/12/15 01:36:04;;;;;;;10.27;5.77;;;7.60;99.90;;;;;;481902;245;28037;-76
2020/12/15 01:38:06;;;;;;;9.03;5.23;;;7.60;99.90;;;;;;481916;245;28376;-76
2020/12/15 01:40:07;;;;;;;7.60;5.20;;;7.60;99.90;;;;;;481925;245;28199;-75
2020/12/15 01:42:10;;;;;;;8.87;5.27;;;7.60;99.90;;;;;;482063;245;28412;-76
2020/12/15 01:44:09;;;;;;;6.27;4.60;;;7.60;99.90;;;;;;481941;246;28311;-75
2020/12/15 01:46:11;;;;;;;6.53;5.53;;;7.60;99.90;;;;;;482066;245;27850;-76
2020/12/15 01:48:12;;;;;;;8.40;5.40;;;7.60;99.90;;;;;;482104;241;27490;-75
2020/12/15 01:50:13;;;;;;;7.50;5.53;;;7.60;99.90;;;;;;482076;245;28025;-77
2020/12/15 01:52:14;;;;;;;7.50;5.40;;;7.60;99.90;;;;;;482041;245;27970;-75
2020/12/15 01:54:16;;;;;;;8.03;5.40;;;7.60;99.90;;;;;;482010;244;28207;-75
2020/12/15 01:56:17;;;;;;;8.17;5.53;;;7.60;99.90;;;;;;481993;245;28133;-76
2020/12/15 01:58:18;;;;;;;9.87;5.93;;;7.60;99.90;;;;;;482044;245;28870;-76
2020/12/15 02:00:20;;;;;;;7.30;5.70;;;7.50;99.90;;;;;;481866;245;28333;-76
2020/12/15 02:02:22;;;;;;;7.93;5.50;;;7.50;99.90;;;;;;481822;245;29287;-76
2020/12/15 02:04:22;;;;;;;8.07;5.20;;;7.60;99.90;;;;;;481892;246;27979;-76
2020/12/15 02:06:23;;;;;;;11.20;6.30;;;7.60;99.90;;;;;;481878;245;28038;-76
2020/12/15 02:08:24;;;;;;;6.43;5.07;;;7.60;99.90;;;;;;481902;245;28101;-76
2020/12/15 02:10:26;;;;;;;7.47;5.27;;;7.60;99.90;;;;;;481850;246;29555;-76
2020/12/15 02:12:27;;;;;;;7.53;4.80;;;7.60;99.90;;;;;;481917;245;28339;-76
2020/12/15 02:14:28;;;;;;;5.80;5.20;;;7.60;99.90;;;;;;481891;245;28514;-76
2020/12/15 02:16:29;;;;;;;7.17;4.93;;;7.60;99.90;;;;;;481886;242;28129;-76
2020/12/15 02:18:31;;;;;;;6.60;5.00;;;7.60;99.90;;;;;;481917;245;28202;-76
2020/12/15 02:20:32;;;;;;;12.77;4.07;;;7.60;99.90;;;;;;481865;244;28055;-76
2020/12/15 02:22:33;;;;;;;9.57;4.47;;;7.60;99.90;;;;;;481903;245;28436;-76
2020/12/15 02:24:34;;;;;;;5.73;3.90;;;7.60;99.90;;;;;;481965;245;27853;-75
2020/12/15 02:26:36;;;;;;;6.90;4.80;;;7.60;99.90;;;;;;481953;245;28151;-76
2020/12/15 02:28:37;;;;;;;6.63;4.30;;;7.60;99.90;;;;;;481926;245;28447;-75
2020/12/15 02:30:38;;;;;;;7.10;4.80;;;7.60;99.90;;;;;;481865;245;28293;-75
2020/12/15 02:32:39;;;;;;;5.50;4.43;;;7.70;99.90;;;;;;482008;245;28092;-76
2020/12/15 02:34:41;;;;;;;5.27;4.10;;;7.70;99.90;;;;;;481986;245;28028;-76
2020/12/15 02:36:42;;;;;;;5.90;4.47;;;7.70;99.90;;;;;;482019;245;28022;-76
2020/12/15 02:38:43;;;;;;;6.87;4.50;;;7.70;99.90;;;;;;482073;245;28073;-76
2020/12/15 02:40:44;;;;;;;10.03;4.77;;;7.70;99.90;;;;;;482048;245;27945;-76
2020/12/15 02:42:46;;;;;;;8.53;4.73;;;7.70;99.90;;;;;;482110;245;27656;-76
2020/12/15 02:44:47;;;;;;;6.67;3.97;;;7.70;99.90;;;;;;482139;245;27986;-75
2020/12/15 02:46:48;;;;;;;5.53;4.30;;;7.80;99.90;;;;;;482085;245;28533;-76
2020/12/15 02:48:49;;;;;;;8.97;4.53;;;7.80;99.90;;;;;;482003;245;29131;-76
2020/12/15 02:50:51;;;;;;;6.30;4.10;;;7.80;99.90;;;;;;481909;245;28561;-75
2020/12/15 02:52:52;;;;;;;6.57;4.20;;;7.80;99.90;;;;;;481966;245;28346;-76
2020/12/15 02:54:53;;;;;;;4.53;3.77;;;7.80;99.90;;;;;;481939;245;28988;-76
2020/12/15 02:56:54;;;;;;;6.40;4.97;;;7.90;99.90;;;;;;481912;245;28106;-76
2020/12/15 02:58:56;;;;;;;9.60;4.50;;;7.90;99.90;;;;;;481946;245;28000;-76
2020/12/15 03:00:57;;;;;;;10.73;4.00;;;7.90;99.90;;;;;;481909;245;27982;-75
2020/12/15 03:02:58;;;;;;;6.97;3.80;;;7.90;99.90;;;;;;481933;245;28889;-77
2020/12/15 03:04:59;;;;;;;11.30;4.03;;;7.90;99.90;;;;;;481907;245;28193;-76
2020/12/15 03:07:01;;;;;;;6.30;3.90;;;7.90;99.90;;;;;;481897;246;27880;-76
2020/12/15 03:09:02;;;;;;;6.23;3.73;;;7.90;99.90;;;;;;481921;245;28034;-76
2020/12/15 03:11:03;;;;;;;3.77;3.37;;;7.90;99.90;;;;;;481907;245;28400;-76
2020/12/15 03:13:04;;;;;;;4.83;3.73;;;7.90;99.90;;;;;;481917;245;28094;-76
2020/12/15 03:15:06;;;;;;;4.60;3.87;;;7.90;99.90;;;;;;481975;245;27898;-76
2020/12/15 03:17:07;;;;;;;10.03;3.70;;;7.90;99.90;;;;;;482064;245;27666;-75
2020/12/15 03:19:08;;;;;;;4.33;3.93;;;7.90;99.90;;;;;;482071;245;28402;-76
2020/12/15 03:21:12;;;;;;;7.83;3.57;;;7.90;99.90;;;;;;482000;245;29398;-76
2020/12/15 03:23:11;;;;;;;5.37;4.20;;;7.90;99.90;;;;;;481879;246;29318;-77
2020/12/15 03:25:19;;;;;;;4.83;3.30;;;8.00;99.90;;;;;;481930;245;28501;-76
2020/12/15 03:27:13;;;;;;;4.80;3.53;;;8.00;99.90;;;;;;481258;246;28567;-76
2020/12/15 03:29:14;;;;;;;8.40;4.27;;;8.00;99.90;;;;;;481928;245;28052;-75
2020/12/15 03:31:16;;;;;;;4.13;3.57;;;8.00;99.90;;;;;;481794;245;28022;-76
2020/12/15 03:33:17;;;;;;;7.27;3.40;;;8.00;99.90;;;;;;481585;245;27877;-76
2020/12/15 03:35:18;;;;;;;8.60;3.50;;;8.00;99.90;;;;;;481916;245;28135;-76
2020/12/15 03:37:19;;;;;;;6.27;3.67;;;8.00;99.90;;;;;;481930;245;28018;-76
2020/12/15 03:39:21;;;;;;;4.70;3.20;;;8.00;99.90;;;;;;481916;245;27650;-76
2020/12/15 03:41:22;;;;;;;4.10;3.13;;;8.00;99.90;;;;;;481926;245;28019;-76
2020/12/15 03:43:23;;;;;;;6.60;3.30;;;8.00;99.90;;;;;;481961;245;27829;-76
2020/12/15 03:45:24;;;;;;;4.27;3.03;;;8.00;99.90;;;;;;481961;245;28142;-76
2020/12/15 03:47:26;;;;;;;6.00;3.80;;;8.00;99.90;;;;;;481938;245;27989;-76
2020/12/15 03:49:27;;;;;;;5.07;3.30;;;8.00;99.90;;;;;;481931;245;28102;-76
2020/12/15 03:51:28;;;;;;;6.30;3.43;;;8.00;99.90;;;;;;482004;245;27973;-76
2020/12/15 03:53:29;;;;;;;5.60;3.40;;;8.10;99.90;;;;;;482076;245;28041;-76
2020/12/15 03:55:31;;;;;;;5.87;3.13;;;8.00;99.90;;;;;;482046;245;27999;-75
2020/12/15 03:57:32;;;;;;;5.70;3.60;;;8.10;99.90;;;;;;481969;245;29129;-75
2020/12/15 03:59:33;;;;;;;4.80;3.43;;;8.00;99.90;;;;;;481885;245;28546;-76
2020/12/15 04:01:34;;;;;;;3.67;3.30;;;8.00;99.90;;;;;;481941;245;28139;-75
2020/12/15 04:03:36;;;;;;;3.30;3.00;;;8.00;99.90;;;;;;481955;245;28518;-76
2020/12/15 04:05:37;;;;;;;3.43;3.13;;;8.10;99.90;;;;;;481986;245;28480;-76
2020/12/15 04:07:38;;;;;;;3.97;2.93;;;8.10;99.90;;;;;;482051;245;27901;-75
2020/12/15 04:09:39;;;;;;;3.53;3.23;;;8.10;99.90;;;;;;482314;245;27521;-77
2020/12/15 04:11:41;;;;;;;3.97;3.13;;;8.20;99.90;;;;;;482141;245;27563;-77
2020/12/15 04:13:42;;;;;;;3.90;3.13;;;8.20;99.90;;;;;;482252;245;27614;-76
2020/12/15 04:15:43;;;;;;;3.67;3.20;;;8.20;99.90;;;;;;482030;245;28007;-76
2020/12/15 04:17:44;;;;;;;4.80;3.13;;;8.20;99.90;;;;;;481958;245;28029;-75
2020/12/15 04:19:46;;;;;;;5.93;3.67;;;8.20;99.90;;;;;;481916;246;28104;-75
2020/12/15 04:21:47;;;;;;;4.93;3.20;;;8.20;99.90;;;;;;481915;245;28596;-77
2020/12/15 04:23:48;;;;;;;5.23;3.20;;;8.20;99.90;;;;;;480498;246;27970;-76
2020/12/15 04:25:49;;;;;;;6.47;3.13;;;8.30;99.90;;;;;;481924;245;27879;-76
2020/12/15 04:27:50;;;;;;;9.60;3.10;;;8.30;99.90;;;;;;481929;245;28012;-76
2020/12/15 04:29:52;;;;;;;5.90;3.60;;;8.30;99.90;;;;;;481907;245;28051;-76
2020/12/15 04:31:53;;;;;;;5.27;3.20;;;8.30;99.90;;;;;;481848;245;28143;-76
2020/12/15 04:33:54;;;;;;;4.80;3.17;;;8.30;99.90;;;;;;481934;245;28285;-76
2020/12/15 04:35:55;;;;;;;4.40;3.10;;;8.30;99.90;;;;;;481902;244;28447;-76
2020/12/15 04:37:57;;;;;;;5.17;3.10;;;8.30;99.90;;;;;;481908;245;27789;-76
2020/12/15 04:39:58;;;;;;;6.40;4.27;;;8.40;99.90;;;;;;481876;245;28010;-76
2020/12/15 04:41:59;;;;;;;5.83;3.40;;;8.40;99.90;;;;;;481892;245;28064;-76
2020/12/15 04:44:01;;;;;;;4.00;2.87;;;8.40;99.90;;;;;;481979;245;27998;-77
2020/12/15 04:46:02;;;;;;;3.67;2.70;;;8.40;99.90;;;;;;482053;245;27918;-78
2020/12/15 04:48:03;;;;;;;4.80;2.50;;;8.40;99.90;;;;;;482056;245;28079;-76
2020/12/15 04:50:04;;;;;;;5.83;3.27;;;8.40;99.90;;;;;;482023;245;28376;-76
2020/12/15 04:52:06;;;;;;;3.73;2.90;;;8.50;99.90;;;;;;481990;245;28077;-76
2020/12/15 04:54:07;;;;;;;7.23;3.13;;;8.50;99.90;;;;;;481996;245;27930;-76
2020/12/15 04:56:08;;;;;;;2.90;2.30;;;8.50;99.90;;;;;;481921;245;27994;-77
2020/12/15 04:58:09;;;;;;;3.83;2.80;;;8.50;99.90;;;;;;481784;246;28042;-76
2020/12/15 05:00:10;;;;;;;3.97;2.90;;;8.50;99.90;;;;;;481875;245;28114;-76
2020/12/15 05:02:12;;;;;;;3.27;2.53;;;8.50;99.90;;;;;;481900;245;28091;-75
2020/12/15 05:04:13;;;;;;;3.40;2.50;;;8.50;99.90;;;;;;481940;245;28013;-77
2020/12/15 05:06:14;;;;;;;2.90;2.60;;;8.50;99.90;;;;;;481828;245;28343;-75
2020/12/15 05:08:15;;;;;;;5.40;3.17;;;8.50;99.90;;;;;;481766;245;28644;-76
2020/12/15 05:10:17;;;;;;;4.07;2.77;;;8.60;99.90;;;;;;481982;245;28568;-76
2020/12/15 05:12:18;;;;;;;4.20;2.60;;;8.60;99.90;;;;;;482058;245;28425;-76
2020/12/15 05:14:19;;;;;;;5.37;3.10;;;8.60;99.90;;;;;;482073;245;28504;-77
2020/12/15 05:16:20;;;;;;;4.53;2.60;;;8.60;99.90;;;;;;482015;245;27993;-76
2020/12/15 05:18:22;;;;;;;3.90;2.60;;;8.60;99.90;;;;;;481968;245;28022;-76
2020/12/15 05:20:23;;;;;;;3.77;3.10;;;8.60;99.90;;;;;;481831;245;28010;-77
2020/12/15 05:22:24;;;;;;;4.10;3.00;;;8.60;99.90;;;;;;482090;245;28026;-75
2020/12/15 05:24:27;;;;;;;8.60;3.10;;;8.60;99.90;;;;;;482057;245;28000;-76
2020/12/15 05:26:29;;;;;;;7.20;2.70;;;8.60;99.90;;;;;;482055;246;27952;-76
2020/12/15 05:28:30;;;;;;;6.13;2.70;;;8.60;99.90;;;;;;482071;245;28081;-76
2020/12/15 05:30:32;;;;;;;3.50;2.87;;;8.70;99.90;;;;;;482023;245;27879;-78
2020/12/15 05:32:32;;;;;;;3.67;2.60;;;8.70;99.90;;;;;;482081;245;28063;-77
2020/12/15 05:34:34;;;;;;;4.67;2.40;;;8.70;99.90;;;;;;482017;245;27974;-77
2020/12/15 05:36:35;;;;;;;5.13;2.90;;;8.70;99.90;;;;;;481957;245;28021;-77
2020/12/15 05:38:36;;;;;;;4.87;2.43;;;8.70;99.90;;;;;;481973;245;28014;-77
2020/12/15 05:40:37;;;;;;;5.40;2.80;;;8.70;99.90;;;;;;481877;241;27664;-76
2020/12/15 05:42:39;;;;;;;6.10;2.50;;;8.70;99.90;;;;;;481968;245;27727;-77
2020/12/15 05:44:40;;;;;;;6.50;3.20;;;8.70;99.90;;;;;;481945;246;27889;-76
2020/12/15 05:46:41;;;;;;;2.63;2.30;;;8.70;99.90;;;;;;481918;244;28056;-76
2020/12/15 05:48:42;;;;;;;3.07;2.70;;;8.70;99.90;;;;;;481916;241;28019;-77
2020/12/15 05:50:44;;;;;;;5.33;3.00;;;8.80;99.90;;;;;;481906;245;27663;-76
2020/12/15 05:52:45;;;;;;;3.70;3.20;;;8.80;99.90;;;;;;481795;245;28059;-76
2020/12/15 05:54:46;;;;;;;4.03;2.80;;;8.80;99.90;;;;;;481909;245;28560;-77
2020/12/15 05:56:47;;;;;;;4.07;3.03;;;8.80;99.90;;;;;;481937;245;28508;-76
2020/12/15 05:58:49;;;;;;;5.00;2.90;;;8.80;99.90;;;;;;481891;244;28577;-76
2020/12/15 06:00:50;;;;;;;5.43;3.33;;;8.80;99.90;;;;;;481918;245;28501;-78
2020/12/15 06:02:51;;;;;;;4.40;3.07;;;8.80;99.90;;;;;;481955;245;28290;-76
2020/12/15 06:04:52;;;;;;;5.67;2.70;;;8.80;99.90;;;;;;481947;245;27991;-76
2020/12/15 06:06:54;;;;;;;3.83;3.50;;;8.80;99.90;;;;;;482014;245;28010;-77
2020/12/15 06:08:55;;;;;;;4.97;2.87;;;8.80;99.90;;;;;;482069;245;28107;-77
2020/12/15 06:10:56;;;;;;;5.10;3.17;;;8.80;99.90;;;;;;482045;245;27972;-76
2020/12/15 06:12:57;;;;;;;4.07;3.13;;;8.80;99.90;;;;;;482019;245;27956;-76
2020/12/15 06:14:59;;;;;;;6.23;3.30;;;8.80;99.90;;;;;;481989;245;28372;-76
2020/12/15 06:17:00;;;;;;;3.63;2.60;;;8.80;99.90;;;;;;481951;245;28047;-77
2020/12/15 06:19:01;;;;;;;4.00;2.90;;;8.80;99.90;;;;;;481908;245;28270;-76
2020/12/15 06:21:02;;;;;;;3.80;3.23;;;8.80;99.90;;;;;;481883;245;27769;-77
2020/12/15 06:23:04;;;;;;;6.47;3.07;;;8.80;99.90;;;;;;481932;245;27951;-77
2020/12/15 06:25:05;;;;;;;5.83;2.90;;;8.80;99.90;;;;;;481941;245;27656;-76
2020/12/15 06:27:06;;;;;;;2.83;2.50;;;8.80;99.90;;;;;;481916;245;27900;-76
2020/12/15 06:29:08;;;;;;;3.17;2.80;;;8.80;99.90;;;;;;481904;245;28137;-77
2020/12/15 06:31:09;;;;;;;2.50;2.30;;;8.70;99.90;;;;;;481830;245;28600;-77
2020/12/15 06:33:10;;;;;;;7.07;3.10;;;8.70;99.90;;;;;;481889;245;28585;-77
2020/12/15 06:35:11;;;;;;;3.20;2.90;;;8.70;99.90;;;;;;481942;245;28465;-76
2020/12/15 06:37:12;;;;;;;3.20;2.60;;;8.70;99.90;;;;;;481948;245;28517;-76
2020/12/15 06:39:14;;;;;;;3.87;2.70;;;8.70;99.90;;;;;;481900;245;28530;-76
2020/12/15 06:41:15;;;;;;;4.97;2.97;;;8.70;99.90;;;;;;481921;245;28597;-76
2020/12/15 06:43:18;;;;;;;6.20;2.77;;;8.70;99.90;;;;;;482072;244;27841;-77
2020/12/15 06:45:17;;;;;;;4.70;3.20;;;8.70;99.90;;;;;;481931;246;27963;-77
2020/12/15 06:47:19;;;;;;;6.10;3.47;;;8.70;99.90;;;;;;482011;245;27891;-77
2020/12/15 06:49:20;;;;;;;6.13;2.93;;;8.60;99.90;;;;;;481990;245;28014;-76
2020/12/15 06:51:21;;;;;;;4.57;3.20;;;8.60;99.90;;;;;;481970;245;28000;-76
2020/12/15 06:53:22;;;;;;;2.67;2.47;;;8.60;99.90;;;;;;482107;245;28122;-78
2020/12/15 06:55:24;;;;;;;4.67;2.70;;;8.60;99.90;;;;;;482126;245;27992;-76
2020/12/15 06:57:25;;;;;;;4.47;2.67;;;8.60;99.90;;;;;;482095;245;28430;-76
2020/12/15 06:59:26;;;;;;;3.83;3.23;;;8.50;99.90;;;;;;482073;245;27999;-76
2020/12/15 07:01:27;;;;;;;5.80;2.57;;;8.50;99.90;;;;;;481923;245;27883;-76
2020/12/15 07:03:29;;;;;;;2.77;2.50;;;8.50;99.90;;;;;;481937;245;28043;-78
2020/12/15 07:05:31;;;;;;;2.93;2.50;;;8.60;99.90;;;;;;481940;245;28050;-76
2020/12/15 07:07:31;;;;;;;4.37;2.63;;;8.60;99.90;;;;;;481900;245;27857;-77
2020/12/15 07:09:32;;;;;;;5.53;2.47;;;8.60;99.90;;;;;;481896;245;28571;-77
2020/12/15 07:11:34;;;;;;;3.40;2.87;;;8.60;99.90;;;;;;481891;245;28482;-76
2020/12/15 07:13:35;;;;;;;3.87;2.60;;;8.60;99.90;;;;;;481912;245;28808;-78
2020/12/15 07:15:36;;;;;;;3.90;2.90;;;8.60;99.90;;;;;;481869;245;28503;-76
2020/12/15 07:17:37;;;;;;;3.27;2.67;;;8.60;99.90;;;;;;481904;245;28253;-76
2020/12/15 07:19:39;;;;;;;2.93;2.50;;;8.60;99.90;;;;;;481921;241;28138;-78
2020/12/15 07:21:40;;;;;;;3.20;2.57;;;8.60;99.90;;;;;;481833;245;27989;-77
2020/12/15 07:23:41;;;;;;;2.73;2.40;;;8.60;99.90;;;;;;481861;245;27968;-77
2020/12/15 07:25:42;;;;;;;2.53;2.33;;;8.60;99.90;;;;;;481960;245;27985;-76
2020/12/15 07:27:44;;;;;;;3.10;2.57;;;8.60;99.90;;;;;;481919;245;27762;-77
2020/12/15 07:29:45;;;;;;;6.50;3.03;;;8.60;99.90;;;;;;481935;245;28086;-77
2020/12/15 07:31:47;;;;;;;2.87;2.43;;;8.60;99.90;;;;;;481889;245;27976;-77
2020/12/15 07:33:47;;;;;;;3.03;2.73;;;8.60;99.90;;;;;;481867;245;27888;-77
2020/12/15 07:35:49;;;;;;;2.70;2.50;;;8.60;99.90;;;;;;481937;245;28162;-76
2020/12/15 07:37:50;;;;;;;3.57;2.77;;;8.60;99.90;;;;;;481939;242;28093;-77
2020/12/15 07:39:51;;;;;;;3.57;2.50;;;8.60;99.90;;;;;;481994;245;27851;-76
2020/12/15 07:41:52;;;;;;;2.90;2.60;;;8.50;99.90;;;;;;481987;245;28097;-76
2020/12/15 07:43:54;;;;;;;3.57;2.40;;;8.60;99.90;;;;;;482071;245;28022;-76
2020/12/15 07:45:55;;;;;;;2.70;2.40;;;8.60;99.90;;;;;;482054;245;27987;-77
2020/12/15 07:47:56;;;;;;;3.70;2.97;;;8.60;99.90;;;;;;481866;245;28788;-77
2020/12/15 07:49:57;;;;;;;3.27;2.27;;;8.60;99.90;;;;;;481985;245;28381;-76
2020/12/15 07:51:59;;;;;;;3.93;2.80;;;8.60;99.90;;;;;;481939;245;28602;-76
2020/12/15 07:54:00;;;;;;;2.53;2.33;;;8.60;99.90;;;;;;482133;245;28506;-77
2020/12/15 07:56:01;;;;;;;3.60;2.60;;;8.60;99.90;;;;;;482191;245;28104;-77
2020/12/15 07:58:02;;;;;;;3.03;2.10;;;8.70;99.90;;;;;;482127;245;30249;-76
2020/12/15 08:00:04;;;;;;;3.20;2.87;;;8.70;99.90;;;;;;481893;246;27964;-77
2020/12/15 08:02:05;;;;;;;4.90;2.87;;;8.70;99.90;;;;;;481842;245;27658;-77
2020/12/15 08:04:06;;;;;;;4.33;2.57;;;8.70;99.90;;;;;;481905;245;28117;-76
2020/12/15 08:06:07;;;;;;;2.57;2.37;;;8.80;99.90;;;;;;481931;245;27991;-76
2020/12/15 08:08:09;;;;;;;3.20;2.53;;;8.80;99.90;;;;;;481950;245;28076;-76
2020/12/15 08:10:10;;;;;;;3.70;2.90;;;8.90;99.90;;;;;;481734;245;27990;-77
2020/12/15 08:12:11;;;;;;;3.40;2.50;;;8.90;99.90;;;;;;482053;245;27544;-77
2020/12/15 08:14:12;;;;;;;4.53;2.73;;;8.90;99.90;;;;;;481936;245;27978;-76
2020/12/15 08:16:14;;;;;;;3.33;2.83;;;8.90;99.90;;;;;;482031;245;28006;-77
2020/12/15 08:18:15;;;;;;;2.63;2.43;;;8.90;99.90;;;;;;482031;245;27489;-76
2020/12/15 08:20:16;;;;;;;3.27;2.60;;;8.90;99.90;;;;;;481945;245;28258;-76
2020/12/15 08:22:17;;;;;;;3.73;2.60;;;8.80;99.90;;;;;;482085;245;27912;-77
2020/12/15 08:24:21;;;;;;;3.10;2.63;;;8.80;99.90;;;;;;482148;245;27991;-76
2020/12/15 08:26:20;;;;;;;2.70;2.50;;;8.90;99.90;;;;;;481989;245;28127;-76
2020/12/15 08:28:21;;;;;;;3.93;2.80;;;8.80;99.90;;;;;;482107;245;28385;-76
2020/12/15 08:30:22;;;;;;;4.57;2.70;;;8.80;99.90;;;;;;482075;245;28496;-77
2020/12/15 08:32:24;;;;;;;4.10;2.63;;;8.90;99.90;;;;;;482101;245;28379;-78
2020/12/15 08:34:25;;;;;;;3.30;2.57;;;8.90;99.90;;;;;;482115;245;28324;-76
2020/12/15 08:36:26;;;;;;;2.87;2.57;;;8.90;99.90;;;;;;482091;245;28523;-76
2020/12/15 08:38:27;;;;;;;4.00;2.63;;;8.90;99.90;;;;;;482082;245;27983;-77
2020/12/15 08:40:29;;;;;;;3.40;3.10;;;8.90;99.90;;;;;;482000;245;27857;-76
2020/12/15 08:42:30;;;;;;;2.83;2.30;;;8.90;99.90;;;;;;482064;245;27909;-77
2020/12/15 08:44:34;;;;;;;2.97;2.60;;;8.90;99.90;;;;;;482025;245;28044;-76
2020/12/15 08:46:32;;;;;;;4.53;2.43;;;9.00;99.90;;;;;;481845;245;28210;-77
2020/12/15 08:48:34;;;;;;;2.90;2.57;;;8.90;99.90;;;;;;482017;245;28020;-77
2020/12/15 08:50:35;;;;;;;4.17;2.27;;;8.90;99.90;;;;;;482002;245;27999;-77
2020/12/15 08:52:36;;;;;;;2.70;2.50;;;9.00;99.90;;;;;;482002;245;27780;-76
2020/12/15 08:54:37;;;;;;;5.00;2.30;;;9.00;99.90;;;;;;482009;245;28012;-75
2020/12/15 08:56:39;;;;;;;4.30;2.63;;;9.00;99.90;;;;;;481997;245;27987;-78
2020/12/15 08:58:40;;;;;;;3.90;2.90;;;9.10;99.90;;;;;;482019;245;28148;-79
2020/12/15 09:00:42;;;;;;;3.07;2.77;;;9.10;99.90;;;;;;481964;244;28037;-77
2020/12/15 09:02:42;;;;;;;2.60;2.40;;;9.10;99.90;;;;;;481967;245;28059;-77
2020/12/15 09:04:44;;;;;;;2.80;2.60;;;9.10;99.90;;;;;;482021;245;28505;-77
2020/12/15 09:06:45;;;;;;;3.37;2.43;;;9.10;99.90;;;;;;482078;245;28633;-76
2020/12/15 09:08:46;;;;;;;5.73;4.00;;;9.10;99.90;;;;;;481989;245;28714;-77
2020/12/15 09:10:47;;;;;;;4.17;3.23;;;9.20;99.90;;;;;;482107;245;28354;-75
2020/12/15 09:12:49;;;;;;;3.30;2.77;;;9.20;99.90;;;;;;482108;245;28505;-76
2020/12/15 09:14:50;;;;;;;2.93;2.40;;;9.20;99.90;;;;;;481869;245;28479;-77
2020/12/15 09:16:51;;;;;;;6.10;2.53;;;9.30;99.90;;;;;;481912;245;27866;-76
2020/12/15 09:18:52;;;;;;;3.13;2.83;;;9.30;99.90;;;;;;481884;245;28028;-76
2020/12/15 09:20:53;;;;;;;3.00;2.67;;;9.30;99.90;;;;;;481876;245;28018;-77
2020/12/15 09:22:55;;;;;;;3.17;2.87;;;9.30;99.90;;;;;;481923;245;27651;-76
2020/12/15 09:25:01;;;;;;;4.80;3.40;;;9.30;99.90;;;;;;481911;245;27968;-76
2020/12/15 09:26:57;;;;;;;3.63;3.07;;;9.30;99.90;;;;;;481628;246;27993;-76
2020/12/15 09:28:58;;;;;;;5.57;3.77;;;9.30;99.90;;;;;;481919;245;28018;-76
2020/12/15 09:31:00;;;;;;;7.97;4.20;;;9.30;99.90;;;;;;481896;245;27662;-76
2020/12/15 09:33:01;;;;;;;8.33;4.63;;;9.20;99.90;;;;;;481920;245;28077;-76
2020/12/15 09:35:02;;;;;;;12.20;4.90;;;9.20;99.90;;;;;;481924;245;28481;-77
2020/12/15 09:37:03;;;;;;;8.80;5.27;;;9.20;99.90;;;;;;481946;245;27870;-77
2020/12/15 09:39:05;;;;;;;7.03;4.60;;;9.30;99.90;;;;;;481938;245;27980;-76
2020/12/15 09:41:06;;;;;;;6.17;3.73;;;9.30;99.90;;;;;;481874;245;28145;-76
2020/12/15 09:43:07;;;;;;;6.27;3.70;;;9.30;99.90;;;;;;481948;245;28334;-76
2020/12/15 09:45:08;;;;;;;4.60;3.53;;;9.40;99.90;;;;;;482038;245;28379;-76
2020/12/15 09:47:10;;;;;;;5.20;3.10;;;9.40;99.90;;;;;;482010;245;28486;-76
2020/12/15 09:49:11;;;;;;;3.47;3.17;;;9.50;99.90;;;;;;482020;245;28016;-76
2020/12/15 09:51:12;;;;;;;6.67;3.57;;;9.50;99.90;;;;;;482024;245;28907;-76
2020/12/15 09:53:13;;;;;;;3.60;3.10;;;9.50;99.90;;;;;;482056;245;27952;-77
2020/12/15 09:55:15;;;;;;;4.50;3.50;;;9.50;99.90;;;;;;482080;245;28019;-77
2020/12/15 09:57:16;;;;;;;5.77;4.53;;;9.50;99.90;;;;;;482146;245;28063;-76
2020/12/15 09:59:17;;;;;;;4.10;3.50;;;9.40;99.90;;;;;;482162;245;28235;-77
2020/12/15 10:01:18;;;;;;;5.30;3.70;;;9.30;99.90;;;;;;482064;245;27935;-76
2020/12/15 10:03:20;;;;;;;4.50;3.50;;;9.40;99.90;;;;;;482093;245;27853;-77
2020/12/15 10:05:21;;;;;;;6.60;3.70;;;9.30;99.90;;;;;;482102;245;28001;-77
2020/12/15 10:07:22;;;;;;;4.83;4.30;;;9.30;99.90;;;;;;482008;245;27982;-75
2020/12/15 10:09:23;;;;;;;3.87;3.53;;;9.30;99.90;;;;;;481981;245;28012;-76
2020/12/15 10:11:25;;;;;;;5.03;3.27;;;9.30;99.90;;;;;;481914;245;28448;-77
2020/12/15 10:13:26;;;;;;;3.50;3.20;;;9.30;99.90;;;;;;481932;245;27891;-77
2020/12/15 10:15:28;;;;;;;4.43;3.50;;;9.30;99.90;;;;;;481894;245;28048;-76
2020/12/15 10:17:29;;;;;;;5.03;3.70;;;9.40;99.90;;;;;;481939;245;27993;-77
2020/12/15 10:19:30;;;;;;;7.20;3.47;;;9.30;99.90;;;;;;481920;245;28110;-76
2020/12/15 10:21:31;;;;;;;6.03;3.40;;;9.30;99.90;;;;;;481907;245;28366;-76
2020/12/15 10:23:37;;;;;;;4.80;3.43;;;9.30;99.90;;;;;;481909;245;28573;-76
2020/12/15 10:25:36;;;;;;;4.93;3.27;;;9.40;99.90;;;;;;481812;245;28001;-76
2020/12/15 10:27:37;;;;;;;6.73;3.10;;;9.30;99.90;;;;;;481846;245;28023;-77
2020/12/15 10:29:39;;;;;;;5.13;3.70;;;9.30;99.90;;;;;;481845;245;27848;-76
2020/12/15 10:31:40;;;;;;;5.10;3.50;;;9.30;99.90;;;;;;481632;245;28050;-76
2020/12/15 10:33:41;;;;;;;4.53;3.40;;;9.40;99.90;;;;;;481980;245;27989;-77
2020/12/15 10:35:42;;;;;;;4.63;3.20;;;9.50;99.90;;;;;;481879;245;28049;-77
2020/12/15 10:37:44;;;;;;;3.50;3.00;;;9.40;99.90;;;;;;482035;245;27877;-76
2020/12/15 10:39:45;;;;;;;3.87;3.47;;;9.40;99.90;;;;;;481996;245;29279;-77